Date,TemperatureHighF,TemperatureAvgF,TemperatureLowF,DewpointHighF,DewpointAvgF,DewpointLowF,HumidityHigh,HumidityAvg,HumidityLow,PressureMaxIn,PressureMinIn,WindSpeedMaxMPH,WindSpeedAvgMPH,GustSpeedMaxMPH,PrecipitationSumIn
2014-1-1,93,77,64,68,64,56,94,67,29,30.00,29.75,6,2,14,0.00
2014-1-2,100,86,72,70,62,50,83,51,20,29.75,29.58,6,2,17,0.01
2014-1-3,88,78,70,73,69,66,91,75,50,29.75,29.37,6,4,16,0.00
2014-1-4,90,78,69,72,68,64,96,74,45,29.76,29.45,9,3,18,0.00
2014-1-5,97,80,67,69,65,56,90,65,26,29.83,29.57,4,2,12,0.00
2014-1-6,97,78,64,67,55,22,93,56,7,29.96,29.67,9,2,21,0.00
2014-1-7,74,69,63,62,60,56,91,73,59,30.14,29.97,8,4,18,0.00
2014-1-8,76,69,64,60,57,54,83,67,52,30.21,30.10,8,4,18,0.00
2014-1-9,80,70,63,61,56,52,76,63,45,30.23,30.14,7,3,15,0.00
2014-1-10,89,74,64,64,61,57,86,66,35,30.17,30.01,6,2,14,0.00
2014-1-11,95,81,68,65,62,57,83,56,28,30.10,29.89,7,2,15,0.00
2014-1-12,92,78,66,66,62,56,88,61,32,30.10,29.94,9,3,19,0.00
2014-1-13,85,75,68,66,63,60,91,68,43,30.16,30.04,9,3,18,0.00
2014-1-14,93,76,62,66,63,59,93,66,33,30.18,30.03,7,2,14,0.00
2014-1-15,99,81,63,67,63,53,93,61,22,30.19,29.98,7,2,15,0.00
2014-1-16,100,82,66,69,64,53,92,60,21,30.10,29.90,8,2,17,0.00
2014-1-17,97,79,64,68,64,56,94,64,27,30.03,29.83,8,2,17,0.00
2014-1-18,101,82,62,66,59,44,93,55,15,29.93,29.71,7,2,18,0.00
2014-1-19,96,78,66,69,64,58,85,64,32,29.81,29.68,10,3,23,0.00
2014-1-20,91,78,69,70,67,66,93,71,45,29.80,29.66,10,4,19,0.00
2014-1-21,88,78,73,72,69,68,88,76,55,29.83,29.68,8,3,16,0.00
2014-1-22,77,73,69,69,65,60,86,77,64,30.19,29.84,6,3,16,0.01
2014-1-23,78,71,66,68,65,62,90,80,69,30.19,30.05,9,4,17,0.00
2014-1-24,90,75,65,69,66,60,96,76,37,30.06,29.67,6,1,15,0.09
2014-1-25,84,73,67,68,62,55,96,70,40,30.15,29.74,10,3,25,0.01
2014-1-26,76,69,63,60,56,52,87,65,48,30.27,30.14,8,4,17,0.00
2014-1-27,85,72,58,62,58,54,89,64,37,30.26,30.09,8,3,18,0.00
2014-1-28,90,75,59,62,59,56,91,62,35,30.17,29.96,6,2,15,0.00
2014-1-29,97,78,61,66,58,46,92,58,18,30.05,29.88,7,2,17,0.00
2014-1-30,92,76,60,63,59,56,91,60,31,30.10,29.91,7,2,16,0.00
2014-1-31,96,77,58,62,58,52,91,58,24,29.99,29.80,5,2,13,0.00
2014-2-1,94,78,64,67,63,60,87,62,35,29.96,29.81,7,2,19,0.00
2014-2-2,92,78,64,67,63,58,92,64,39,29.96,29.84,8,3,19,0.00
2014-2-3,94,78,64,64,61,47,90,61,22,29.99,29.79,6,2,18,0.00
2014-2-4,87,74,63,66,62,59,90,70,40,30.00,29.82,9,2,19,0.00
2014-2-5,76,69,65,59,55,50,80,63,41,30.21,30.12,7,3,17,0.00
2014-2-6,79,69,63,58,56,53,84,65,46,30.15,29.99,7,2,17,0.00
2014-2-7,89,71,56,62,58,53,93,67,32,30.06,29.92,7,2,19,0.00
2014-2-8,94,75,56,64,59,50,93,62,24,30.07,29.94,6,2,15,0.00
2014-2-9,100,78,60,67,61,42,95,64,14,30.11,29.88,6,1,13,0.00
2014-2-10,90,76,64,68,64,60,88,69,45,30.09,29.91,9,3,18,0.00
2014-2-11,92,78,72,69,67,65,86,70,42,30.04,29.85,8,3,17,0.00
2014-2-12,92,78,68,69,67,64,94,71,41,30.01,29.89,9,3,20,0.00
2014-2-13,93,78,67,69,66,62,90,69,42,30.00,29.76,7,2,16,0.00
2014-2-14,75,71,67,70,68,65,95,90,79,29.87,29.68,1,0,4,0.26
2014-2-15,81,74,69,73,70,68,96,89,71,29.72,29.46,3,1,9,0.07
2014-2-16,82,74,69,74,71,68,97,91,68,29.79,29.51,2,0,13,1.36
2014-2-17,81,72,66,68,64,60,97,76,50,29.95,29.79,7,3,15,0.05
2014-2-18,81,72,66,70,66,62,94,83,69,29.93,29.75,6,2,13,0.00
2014-2-19,87,75,70,76,72,68,97,91,64,29.74,29.56,3,0,10,1.34
2014-2-20,90,78,69,71,64,52,98,67,32,29.88,29.61,4,1,15,0.00
2014-2-21,81,72,66,64,59,53,90,66,42,30.08,29.90,8,2,16,0.00
2014-2-22,81,72,64,63,61,57,88,71,49,30.18,30.03,7,2,17,0.00
2014-2-23,76,69,62,63,60,58,93,76,54,30.22,30.13,7,2,16,0.00
2014-2-24,84,73,66,66,64,62,93,75,50,30.17,30.00,7,2,17,0.00
2014-2-25,87,74,62,67,63,57,96,73,39,30.07,29.85,3,1,9,0.00
2014-2-26,94,79,63,67,62,58,93,62,31,29.92,29.80,3,1,11,0.00
2014-2-27,85,75,67,70,67,65,92,76,58,30.13,29.92,8,2,16,0.00
2014-2-28,70,68,66,68,66,64,97,92,81,30.19,30.10,5,1,14,0.46
2014-3-1,73,67,64,67,64,60,96,89,69,30.16,30.05,5,1,14,0.22
2014-3-2,73,67,63,68,64,62,96,91,79,30.19,30.06,4,0,10,0.08
2014-3-3,79,70,66,69,66,64,96,87,68,30.28,30.17,7,2,15,0.04
2014-3-4,83,72,65,67,64,61,94,76,50,30.29,30.15,6,2,15,0.00
2014-3-5,91,71,60,68,63,59,98,80,39,30.14,29.92,4,1,12,0.39
2014-3-6,81,71,64,70,67,63,98,86,66,30.11,29.99,5,1,14,0.02
2014-3-7,84,74,67,69,67,65,97,81,54,30.14,30.04,3,1,9,0.00
2014-3-8,84,73,64,67,63,59,97,74,44,30.18,30.08,6,2,13,0.00
2014-3-9,84,72,62,65,62,58,94,72,44,30.22,30.07,5,2,12,0.00
2014-3-10,86,73,61,66,63,60,96,75,43,30.22,30.10,6,2,15,0.00
2014-3-11,83,72,62,66,62,59,96,73,44,30.23,30.08,6,2,14,0.00
2014-3-12,86,73,58,66,62,57,98,72,45,30.11,29.95,4,1,11,0.00
2014-3-13,83,73,65,67,65,62,93,79,57,30.13,30.00,6,2,16,0.00
2014-3-14,86,71,60,68,63,59,97,79,47,30.07,29.90,3,1,12,0.01
2014-3-15,89,73,59,66,63,58,98,74,44,29.98,29.75,3,1,11,0.01
2014-3-16,88,72,62,66,62,55,95,73,40,29.90,29.66,8,2,20,0.06
2014-3-17,83,68,52,56,51,48,90,59,31,30.09,29.94,3,1,12,0.00
2014-3-18,87,70,52,60,54,50,95,64,31,30.19,30.08,3,1,9,0.00
2014-3-19,86,71,57,68,62,55,94,74,44,30.29,30.15,7,2,16,0.00
2014-3-20,82,72,65,67,65,63,96,80,57,30.31,30.20,8,2,17,0.00
2014-3-21,82,71,66,68,65,62,95,81,57,30.21,30.05,4,1,13,0.00
2014-3-22,90,73,60,67,62,56,98,73,34,30.10,29.94,2,0,6,0.01
2014-3-23,90,74,64,68,64,60,93,72,38,30.07,29.88,3,0,12,0.00
2014-3-24,74,68,65,66,63,61,94,83,70,30.05,29.93,3,1,11,0.47
2014-3-25,75,67,58,66,62,57,98,86,73,30.19,30.03,3,0,7,0.01
2014-3-26,76,70,67,70,68,65,97,92,81,30.20,30.11,4,1,10,0.21
2014-3-27,70,68,64,69,66,63,97,96,93,30.19,30.08,3,1,8,0.92
2014-3-28,76,68,64,68,65,63,98,92,73,30.09,29.88,3,0,11,1.34
2014-3-29,81,71,64,68,65,62,96,82,60,30.06,29.93,4,1,11,0.01
2014-3-30,81,71,63,67,65,62,97,82,60,30.16,30.06,5,1,12,0.00
2014-3-31,81,71,63,67,64,62,96,81,58,30.19,30.06,5,1,12,0.00
2014-4-1,79,68,59,68,63,58,98,86,61,30.14,30.01,3,1,8,0.00
2014-4-2,83,70,62,70,66,60,98,86,63,30.07,29.92,3,1,7,0.00
2014-4-3,88,73,64,72,68,62,98,84,55,30.07,29.92,3,1,8,0.00
2014-4-4,74,70,68,71,68,66,97,94,88,30.07,29.97,4,0,10,0.93
2014-4-5,77,70,66,71,68,66,99,93,77,30.09,30.00,5,1,10,0.01
2014-4-6,74,68,64,67,64,62,97,88,72,30.22,30.08,5,1,11,0.33
2014-4-7,73,66,59,63,60,57,96,84,60,30.28,30.19,6,1,13,0.03
2014-4-8,76,66,58,63,60,56,97,80,54,30.24,30.09,5,1,13,0.00
2014-4-9,78,66,56,64,60,55,98,82,56,30.16,30.02,3,1,9,0.00
2014-4-10,76,67,59,66,62,58,97,85,69,30.06,29.85,1,0,6,0.00
2014-4-11,83,73,66,69,66,64,98,79,57,29.81,29.64,4,1,14,0.27
2014-4-12,74,69,64,65,61,57,88,75,63,30.00,29.75,3,1,13,0.01
2014-4-13,74,65,57,63,58,54,91,79,65,30.11,29.95,3,1,13,0.00
2014-4-14,73,64,59,60,57,54,94,77,59,30.16,30.05,5,1,15,0.02
2014-4-15,70,64,57,61,59,56,95,85,66,30.15,30.06,3,0,9,0.01
2014-4-16,73,65,60,61,58,56,94,78,60,30.12,30.02,3,1,11,0.01
2014-4-17,75,63,52,59,55,50,98,78,44,30.13,30.03,3,1,9,0.00
2014-4-18,78,64,51,59,54,51,98,74,42,30.10,29.90,3,1,13,0.01
2014-4-19,78,65,52,57,53,50,93,68,39,30.07,29.92,4,1,13,0.00
2014-4-20,76,63,53,58,52,48,94,72,40,30.08,29.97,3,0,14,0.00
2014-4-21,73,59,46,53,48,44,94,70,43,30.18,30.07,2,0,9,0.00
2014-4-22,79,61,45,55,50,44,98,72,38,30.14,30.00,3,1,11,0.00
2014-4-23,82,64,50,58,52,48,93,69,31,30.08,29.96,2,1,8,0.00
2014-4-24,86,66,49,59,54,48,97,70,34,30.00,29.90,4,1,13,0.00
2014-4-25,68,62,57,62,58,54,95,85,70,30.22,30.05,5,1,19,1.30
2014-4-26,75,63,51,62,57,50,98,84,59,30.10,29.91,2,0,9,0.00
2014-4-27,70,62,56,63,60,55,97,91,77,30.27,30.05,6,1,13,0.08
2014-4-28,72,64,58,62,60,56,98,87,64,30.30,30.16,5,1,11,0.01
2014-4-29,78,62,50,63,57,49,100,85,55,30.17,29.94,2,0,10,0.00
2014-4-30,73,65,58,62,60,53,97,86,68,30.02,29.85,5,1,18,0.01
2014-5-1,70,59,48,57,52,46,95,79,59,30.08,29.92,3,1,9,0.00
2014-5-2,72,62,52,55,52,48,97,73,47,29.88,29.58,2,0,9,0.00
2014-5-3,60,56,51,48,46,43,86,69,54,29.63,29.46,7,3,21,0.01
2014-5-4,66,58,53,50,45,40,79,64,49,29.95,29.60,7,4,20,0.00
2014-5-5,65,55,48,46,43,41,77,64,46,30.17,29.97,4,2,13,0.00
2014-5-6,67,54,40,50,45,38,97,74,50,30.22,30.09,3,0,10,0.00
2014-5-7,68,58,49,53,49,46,92,73,56,30.28,30.17,3,1,9,0.00
2014-5-8,66,57,48,55,50,44,93,79,66,30.34,30.23,3,1,9,0.00
2014-5-9,70,60,53,58,54,51,94,83,64,30.33,30.22,2,1,8,0.00
2014-5-10,69,57,44,58,52,43,98,85,61,30.28,30.16,1,0,6,0.00
2014-5-11,73,61,56,62,57,54,97,87,60,30.32,30.15,3,1,11,0.13
2014-5-12,72,60,50,60,54,50,98,84,60,30.43,30.31,4,1,9,0.01
2014-5-13,71,61,54,61,57,52,97,87,63,30.45,30.32,2,0,5,0.08
2014-5-14,69,57,49,60,54,48,99,89,66,30.42,30.29,2,0,6,0.01
2014-5-15,72,56,44,58,51,43,98,84,51,30.41,30.29,1,0,4,0.00
2014-5-16,75,56,42,56,48,41,98,79,39,30.45,30.33,1,0,6,0.01
2014-5-17,76,57,43,55,49,42,98,79,43,30.48,30.34,2,0,10,0.00
2014-5-18,74,57,46,56,51,45,97,82,51,30.42,30.29,1,0,5,0.00
2014-5-19,76,62,52,57,54,50,96,77,45,30.35,30.23,2,0,10,0.00
2014-5-20,74,60,48,57,52,47,97,79,52,30.27,30.15,3,0,11,0.00
2014-5-21,75,61,50,57,54,49,96,78,51,30.28,30.19,2,0,6,0.00
2014-5-22,77,59,46,57,52,45,98,79,44,30.27,30.10,2,0,8,0.00
2014-5-23,77,60,46,58,52,45,98,78,50,30.14,29.95,3,0,10,0.00
2014-5-24,79,66,55,58,56,53,95,71,44,30.04,29.95,3,1,14,0.00
2014-5-25,80,66,58,60,57,55,95,76,45,30.18,30.03,4,0,12,0.02
2014-5-26,78,61,48,60,55,47,98,82,52,30.26,30.15,2,0,8,0.01
2014-5-27,78,62,50,60,55,49,98,81,49,30.18,29.88,4,0,14,0.00
2014-5-28,75,66,56,58,53,48,88,66,40,30.10,29.90,6,1,15,0.00
2014-5-29,70,57,45,58,50,43,96,78,52,30.28,30.13,2,0,6,0.00
2014-5-30,64,60,56,61,58,55,98,95,86,30.34,30.26,1,0,6,0.27
2014-5-31,68,59,51,61,56,51,99,90,77,30.32,30.17,4,1,11,0.01
2014-6-1,67,58,53,60,56,52,98,93,77,30.17,30.06,3,0,9,0.19
2014-6-2,69,58,52,60,54,50,99,87,58,30.09,30.01,3,1,12,0.06
2014-6-3,64,55,46,52,48,45,98,79,60,30.18,30.06,4,2,15,0.00
2014-6-4,67,55,43,53,48,41,95,79,56,30.28,30.20,2,0,9,0.00
2014-6-5,66,59,54,60,56,52,96,90,79,30.31,30.22,1,0,4,0.01
2014-6-6,65,60,58,58,56,51,96,87,75,30.33,30.24,3,1,13,0.00
2014-6-7,66,58,50,54,50,46,95,77,63,30.35,30.25,3,0,10,0.00
2014-6-8,64,55,46,53,49,45,98,82,59,30.35,30.27,3,0,9,0.00
2014-6-9,66,52,40,56,48,39,98,86,54,30.39,30.31,2,0,12,0.03
2014-6-10,64,56,50,58,53,49,100,91,76,30.43,30.31,4,0,8,0.05
2014-6-11,66,54,46,55,51,45,99,88,64,30.34,30.20,2,0,8,0.00
2014-6-12,67,54,46,54,49,44,100,85,54,30.22,30.10,1,0,4,0.00
2014-6-13,64,53,44,55,49,42,98,89,70,30.13,29.99,1,0,4,0.00
2014-6-14,67,59,54,59,55,50,99,88,69,29.96,29.84,3,1,11,0.20
2014-6-15,62,55,50,51,48,46,84,76,66,30.05,29.87,7,3,22,0.00
2014-6-16,64,55,46,48,46,43,94,73,55,30.25,30.08,4,2,15,0.00
2014-6-17,66,56,49,49,46,42,88,71,52,30.37,30.24,4,1,14,0.00
2014-6-18,67,55,48,53,49,44,94,80,60,30.45,30.36,1,0,8,0.00
2014-6-19,63,50,42,56,48,41,99,92,73,30.41,30.23,1,0,5,0.00
2014-6-20,71,54,45,59,51,44,98,90,59,30.21,30.02,4,0,18,0.65
2014-6-21,69,56,46,58,51,46,99,86,55,30.16,30.08,3,0,10,0.01
2014-6-22,66,54,45,54,49,44,98,86,58,30.23,30.11,3,0,7,0.00
2014-6-23,62,52,42,52,46,41,100,83,58,30.15,29.82,3,1,15,0.00
2014-6-24,60,56,52,45,42,39,69,58,46,29.92,29.78,10,5,24,0.00
2014-6-25,65,59,55,47,44,42,72,60,44,30.15,29.90,7,4,18,0.00
2014-6-26,66,59,52,46,44,42,71,60,47,30.23,30.13,5,2,18,0.00
2014-6-27,67,55,44,48,45,40,88,69,44,30.24,29.99,3,1,13,0.00
2014-6-28,69,48,33,55,42,31,96,81,55,29.95,29.61,8,1,22,0.08
2014-6-29,58,53,50,42,40,39,70,62,52,29.92,29.74,8,5,24,0.00
2014-6-30,61,52,47,43,40,35,79,63,41,30.20,29.93,4,2,16,0.00
2014-7-1,63,52,41,44,41,37,88,67,44,30.35,30.23,3,1,14,0.00
2014-7-2,46,42,38,41,38,36,94,87,81,30.38,30.33,0,0,4,0.00
2014-7-3,68,48,33,47,40,31,97,78,42,30.37,30.21,2,0,9,0.00
2014-7-4,68,50,34,45,39,33,98,71,39,30.24,30.05,3,1,13,0.00
2014-7-5,52,43,38,39,37,35,90,78,60,30.08,30.03,0,0,3,0.00
2014-7-16,57,29,57,47,24,47,69,34,69,29.99,29.99,1,0,1,0.00
2014-7-18,60,60,60,35,35,35,39,39,39,29.93,29.93,2,2,10,0.00
2014-7-19,54,54,54,39,39,39,55,55,55,30.22,30.22,0,0,10,0.00
2014-7-20,50,50,50,41,41,41,71,71,71,30.26,30.26,0,0,2,0.00
2014-7-21,46,46,46,44,44,44,95,95,95,30.29,30.29,0,0,2,0.00
2014-7-22,45,45,45,43,43,43,94,94,94,30.25,30.25,0,0,0,0.00
2014-7-23,64,59,51,52,50,48,92,74,61,30.31,30.16,2,1,7,0.00
2014-7-24,60,46,40,52,44,39,98,94,75,30.23,30.15,1,0,4,0.00
2014-7-25,67,53,40,55,49,39,98,87,57,30.26,30.16,3,1,11,0.23
2014-7-26,61,55,46,57,54,45,98,95,85,30.28,30.17,2,0,7,7.20
2014-7-27,67,53,44,50,46,42,100,79,51,30.31,30.19,2,0,10,0.14
2014-7-28,66,56,45,47,45,42,91,68,45,30.23,30.10,4,1,15,0.00
2014-7-29,70,56,41,46,43,39,99,66,38,30.17,30.02,5,1,18,0.00
2014-7-30,73,61,47,48,43,40,83,54,40,30.16,30.03,5,2,16,0.00
2014-7-31,75,60,43,47,41,37,90,56,27,30.08,29.83,6,1,19,0.00
2014-8-1,67,58,48,43,36,32,66,44,35,30.07,29.73,8,3,26,0.00
2014-8-2,61,51,42,39,36,34,80,58,38,30.44,30.08,3,1,12,0.00
2014-8-3,62,49,38,47,41,35,90,76,55,30.56,30.47,5,1,13,0.00
2014-8-4,64,50,35,51,44,34,96,82,56,30.56,30.42,2,0,6,0.00
2014-8-5,70,54,43,50,45,42,98,75,41,30.51,30.39,3,1,9,0.00
2014-8-6,69,52,37,50,41,35,97,71,35,30.53,30.33,3,0,10,0.00
2014-8-7,64,53,41,46,42,37,89,66,45,30.44,30.35,2,1,10,0.00
2014-8-8,66,50,36,52,44,34,100,81,52,30.50,30.39,3,1,9,0.00
2014-8-9,70,53,40,52,44,39,98,77,38,30.46,30.28,3,1,13,0.00
2014-8-10,69,56,43,43,39,36,89,56,32,30.30,30.12,4,1,13,0.00
2014-8-11,61,49,37,42,38,34,92,68,39,30.35,30.19,5,1,11,0.00
2014-8-12,62,49,38,48,42,35,91,76,58,30.45,30.34,6,1,16,0.01
2014-8-13,60,50,40,49,44,38,96,82,58,30.53,30.44,3,0,8,0.00
2014-8-14,63,43,33,46,38,32,97,85,50,30.58,30.50,2,0,9,0.00
2014-8-15,66,53,40,52,47,39,100,81,51,30.50,30.27,7,1,16,0.00
2014-8-16,64,53,43,56,50,42,97,90,68,30.28,29.96,5,1,13,1.69
2014-8-17,67,59,53,56,50,44,100,74,45,29.97,29.70,4,2,12,4.47
2014-8-18,60,56,50,55,50,45,94,81,67,29.82,29.63,4,2,15,0.11
2014-8-19,68,58,53,54,52,49,95,80,56,30.16,29.87,4,2,16,0.20
2014-8-20,64,57,51,50,47,43,82,70,54,30.33,30.17,4,1,12,0.00
2014-8-21,60,54,47,55,50,45,95,89,77,30.40,30.31,2,0,8,0.06
2014-8-22,68,58,50,56,52,50,98,83,58,30.46,30.34,7,1,15,0.00
2014-8-23,64,55,46,58,52,44,98,89,74,30.45,30.36,5,1,12,0.02
2014-8-24,68,58,50,57,53,49,98,85,58,30.42,30.29,6,1,14,0.01
2014-8-25,69,55,43,56,50,42,98,84,54,30.32,30.16,4,1,11,0.00
2014-8-26,62,55,46,57,52,45,97,91,75,30.22,30.15,7,1,14,0.02
2014-8-27,64,58,55,57,55,52,97,88,71,30.27,30.17,6,2,14,0.63
2014-8-28,66,57,51,57,51,46,94,82,60,30.35,30.24,6,1,12,0.10
2014-8-29,62,54,44,53,48,42,97,82,65,30.35,30.23,3,1,11,0.01
2014-8-30,64,58,53,55,51,46,87,77,71,30.25,30.17,4,2,14,0.00
2014-8-31,73,62,54,56,53,52,91,74,48,30.18,30.04,2,0,8,0.00
2014-9-1,76,59,43,55,49,42,98,72,42,30.09,29.89,4,1,19,0.00
2014-9-2,67,58,52,55,47,40,92,68,42,29.90,29.75,5,1,17,0.09
2014-9-3,64,56,49,45,40,37,84,57,39,29.99,29.88,5,2,15,0.02
2014-9-4,65,53,43,46,42,38,85,68,44,30.09,29.96,4,1,12,0.00
2014-9-5,64,55,48,52,46,43,90,73,49,30.27,30.09,5,1,13,0.02
2014-9-6,64,55,46,55,51,44,96,85,65,30.43,30.28,7,1,16,0.06
2014-9-7,66,57,49,55,52,48,98,83,57,30.47,30.33,5,2,14,0.07
2014-9-8,71,57,44,56,51,43,98,81,55,30.41,30.21,7,2,15,0.00
2014-9-9,80,61,45,58,51,44,98,75,41,30.20,29.88,3,0,14,0.01
2014-9-10,75,63,52,58,52,45,96,71,38,30.00,29.72,5,2,17,0.46
2014-9-11,78,63,49,51,48,45,87,60,37,30.10,29.97,4,2,16,0.00
2014-9-12,68,58,48,56,51,44,93,78,61,30.29,30.15,7,2,14,0.00
2014-9-13,74,62,53,59,55,51,94,79,51,30.30,30.17,6,1,12,0.00
2014-9-14,81,63,49,58,51,45,98,70,31,30.19,29.98,4,1,15,0.00
2014-9-15,75,62,50,57,52,46,97,73,37,30.10,29.94,5,1,14,0.00
2014-9-16,80,65,53,60,51,45,95,67,30,29.98,29.72,5,2,17,0.00
2014-9-17,75,64,55,49,44,38,74,51,28,30.00,29.84,5,2,16,0.00
2014-9-18,75,60,48,43,39,25,72,50,16,30.18,29.99,6,2,13,0.00
2014-9-19,69,54,40,45,41,38,93,64,33,30.22,30.09,2,0,8,0.00
2014-9-20,70,55,38,50,44,36,94,70,41,30.35,30.17,7,1,15,0.00
2014-9-21,70,59,48,53,50,45,93,74,51,30.43,30.31,6,2,15,0.00
2014-9-22,71,58,46,54,49,45,96,74,44,30.50,30.35,5,1,12,0.00
2014-9-23,75,58,41,56,49,39,96,75,38,30.44,30.26,6,1,14,0.00
2014-9-24,81,63,46,58,52,44,98,72,35,30.28,30.00,2,0,12,0.00
2014-9-25,75,63,55,63,58,52,96,83,56,29.97,29.80,3,1,11,0.16
2014-9-26,75,63,53,57,53,47,96,73,38,30.08,29.97,5,1,11,0.00
2014-9-27,72,62,56,55,54,50,92,75,48,30.20,30.07,6,2,14,0.00
2014-9-28,81,63,45,58,50,44,98,68,28,30.22,30.02,2,0,9,0.00
2014-9-29,88,70,48,54,50,46,94,56,25,30.06,29.91,4,1,15,0.00
2014-9-30,91,73,56,60,52,49,85,54,27,30.00,29.81,6,1,22,0.00
2014-10-1,75,68,52,48,40,29,68,38,19,30.21,29.78,9,2,18,0.00
2014-10-2,79,60,43,48,44,40,91,59,29,30.23,30.05,2,1,10,0.00
2014-10-3,76,62,48,58,52,42,87,71,45,30.15,30.04,8,2,18,0.00
2014-10-4,87,67,53,60,55,51,96,71,30,30.15,29.95,3,0,11,0.00
2014-10-5,94,73,49,56,48,37,96,52,15,30.07,29.91,3,1,14,0.00
2014-10-6,89,71,54,65,58,48,91,67,32,30.11,29.82,4,1,10,0.00
2014-10-7,92,75,61,62,55,49,94,54,30,29.96,29.72,8,2,18,0.00
2014-10-8,68,62,57,60,57,54,92,83,69,30.17,29.97,8,2,19,0.08
2014-10-9,75,63,54,58,54,52,95,76,45,30.23,30.08,7,2,14,0.00
2014-10-10,86,66,48,59,52,46,96,67,25,30.14,29.92,6,1,14,0.00
2014-10-11,88,71,53,61,54,43,96,63,21,30.04,29.91,6,1,13,0.00
2014-10-12,90,70,50,61,54,42,96,65,20,30.07,29.85,6,1,13,0.00
2014-10-13,84,68,56,64,58,54,96,74,41,29.86,29.63,7,1,23,1.16
2014-10-14,70,60,54,59,49,36,97,70,30,29.91,29.75,5,1,15,0.60
2014-10-15,68,56,48,49,47,45,94,72,45,30.05,29.84,6,2,16,0.26
2014-10-16,78,61,43,51,44,37,97,62,23,30.13,29.98,3,1,11,0.00
2014-10-17,71,59,49,56,50,46,92,73,51,30.36,30.13,8,2,18,0.00
2014-10-18,73,62,53,54,51,48,93,70,44,30.42,30.28,6,2,16,0.03
2014-10-19,84,65,47,58,51,45,98,65,28,30.38,30.17,3,1,8,0.00
2014-10-20,71,62,52,60,55,50,97,80,62,30.47,30.18,7,3,16,0.00
2014-10-21,67,62,58,56,52,49,91,73,54,30.50,30.38,7,3,16,0.00
2014-10-22,79,64,48,58,52,46,95,67,35,30.43,30.10,3,1,9,0.00
2014-10-23,91,71,53,62,56,51,94,64,32,30.12,29.95,4,1,10,0.00
2014-10-24,87,73,59,66,61,55,90,69,44,30.16,29.88,6,1,19,0.00
2014-10-25,99,77,60,68,60,51,96,65,21,30.00,29.87,7,1,17,0.01
2014-10-26,105,80,62,67,60,45,97,62,14,30.01,29.67,10,2,20,0.00
2014-10-27,98,80,65,66,58,47,92,56,20,29.94,29.62,6,2,19,0.00
2014-10-28,89,74,57,57,43,31,90,40,13,29.92,29.78,5,2,22,0.00
2014-10-29,85,69,53,58,49,41,80,51,26,30.05,29.91,8,2,18,0.00
2014-10-30,95,73,54,61,53,36,95,58,13,30.01,29.82,6,1,14,0.00
2014-10-31,102,78,54,58,50,34,92,49,10,29.94,29.69,5,1,14,0.00
2014-11-1,98,82,69,63,60,48,74,49,27,29.86,29.48,8,3,27,0.00
2014-11-2,83,68,54,47,36,25,68,35,16,30.22,29.87,9,2,23,0.00
2014-11-3,77,63,48,52,49,44,88,62,36,30.28,30.14,9,3,20,0.00
2014-11-4,81,67,54,61,56,51,93,69,40,30.25,30.03,8,2,16,0.00
2014-11-5,92,70,57,62,58,53,93,72,28,30.07,29.83,7,1,17,0.18
2014-11-6,81,66,55,61,57,53,97,76,43,30.07,29.85,10,2,23,0.01
2014-11-7,80,66,56,61,58,54,95,74,50,30.21,30.04,9,2,20,0.00
2014-11-8,86,68,53,62,57,49,97,72,28,30.21,30.02,7,2,15,0.00
2014-11-9,91,72,56,66,61,55,96,72,36,30.08,29.96,10,3,22,0.00
2014-11-10,86,72,65,65,61,59,88,70,45,30.10,29.91,12,3,22,0.00
2014-11-11,74,67,63,62,58,54,87,74,51,30.14,30.05,8,4,17,0.00
2014-11-12,79,68,62,59,58,56,86,71,49,30.13,29.94,8,3,21,0.00
2014-11-13,86,71,57,66,60,54,93,71,42,30.09,29.90,6,2,13,0.00
2014-11-14,105,84,61,67,59,53,97,53,19,29.94,29.71,5,1,15,0.00
2014-11-15,93,75,66,65,60,57,80,62,38,29.90,29.71,12,4,28,0.00
2014-11-16,87,72,61,64,56,49,88,62,29,29.86,29.62,10,3,31,0.08
2014-11-17,92,72,57,56,51,43,77,52,19,29.98,29.81,9,2,19,0.00
2014-11-18,89,71,61,61,57,51,80,63,28,30.13,29.92,9,2,21,0.00
2014-11-19,80,70,60,64,61,55,90,75,56,30.16,30.00,9,3,23,0.00
2014-11-20,102,80,61,67,61,50,96,60,19,30.01,29.70,4,1,13,0.00
2014-11-21,104,87,69,68,60,41,86,47,12,29.86,29.62,6,2,20,0.00
2014-11-22,95,77,69,67,64,61,88,66,33,30.01,29.78,8,2,16,0.00
2014-11-23,114,87,64,72,62,48,97,55,12,29.92,29.68,7,1,18,0.00
2014-11-24,96,80,72,74,69,64,96,72,42,29.92,29.67,7,2,18,0.87
2014-11-25,83,76,73,71,67,60,91,75,45,29.99,29.82,10,2,19,0.02
2014-11-26,83,73,66,67,63,60,84,73,57,30.10,29.92,7,3,15,0.00
2014-11-27,74,70,66,66,63,59,93,80,67,30.22,30.01,10,4,19,0.08
2014-11-28,75,68,63,60,59,57,85,72,58,30.22,30.09,10,4,21,0.00
2014-11-29,90,73,58,64,58,50,93,65,27,30.12,29.89,8,2,15,0.00
2014-11-30,96,75,59,66,61,57,93,67,28,29.97,29.80,10,1,23,0.06
2014-12-1,69,67,66,65,64,63,94,90,83,29.94,29.84,0,0,0,0.03
2014-12-2,99,82,67,68,64,58,92,60,27,29.92,29.73,6,2,13,0.02
2014-12-3,101,82,69,70,66,58,91,65,25,30.00,29.74,7,1,15,0.00
2014-12-4,89,77,69,71,68,64,96,76,51,29.97,29.73,6,1,16,0.13
2014-12-5,97,78,66,69,65,61,95,68,31,29.85,29.60,11,2,20,0.58
2014-12-6,83,71,63,70,66,62,96,86,56,29.78,29.62,4,1,12,0.45
2014-12-7,94,76,65,70,67,64,98,79,41,29.73,29.57,7,1,14,0.09
2014-12-8,89,73,66,71,67,65,97,83,52,29.78,29.66,4,1,14,0.01
2014-12-9,84,77,70,70,67,65,84,71,59,29.99,29.87,9,6,20,0.00
2014-12-10,89,74,68,71,67,65,96,82,53,29.98,29.75,10,2,22,1.22
2014-12-11,79,70,63,73,66,59,98,88,70,29.93,29.67,5,1,16,0.50
2014-12-12,73,66,61,61,57,53,92,73,51,30.07,29.90,10,4,20,0.01
2014-12-13,74,66,60,60,58,55,94,77,54,30.05,29.98,9,3,19,0.02
2014-12-14,83,70,56,61,57,52,95,68,35,30.00,29.79,7,1,14,0.00
2014-12-15,85,72,59,64,60,57,92,68,45,29.88,29.77,6,2,12,0.00
2014-12-16,88,74,59,70,62,56,92,69,46,29.82,29.49,5,1,13,0.02
2014-12-17,88,74,64,66,61,57,85,65,37,29.85,29.51,11,4,25,0.00
2014-12-18,84,75,66,69,63,51,85,67,40,29.85,29.64,4,1,11,0.00
2014-12-19,80,71,60,61,56,49,70,59,35,30.07,29.72,10,4,21,0.00
2014-12-20,80,70,62,61,58,56,82,67,52,30.07,29.95,10,3,18,0.00
2014-12-21,88,73,58,68,61,55,93,69,38,30.07,29.92,8,2,15,0.00
2014-12-22,94,77,63,70,64,56,95,69,28,30.03,29.87,7,2,20,0.00
2014-12-23,84,74,67,71,68,64,94,82,57,30.00,29.85,3,0,12,0.09
2014-12-24,91,76,69,74,69,66,97,81,51,29.97,29.84,10,3,20,0.02
2014-12-25,96,76,68,73,68,66,95,79,42,29.97,29.64,6,1,20,1.13